createdAt,value
2024-05-09T00:00:29.914Z,9.2032
2024-05-09T00:01:23.495Z,9.2321
2024-05-09T00:02:25.312Z,9.2776
2024-05-09T00:03:27.051Z,9.3304
2024-05-09T00:04:28.728Z,9.3351
2024-05-09T00:05:30.608Z,9.2940
2024-05-09T00:06:32.320Z,9.2339
2024-05-09T00:07:34.060Z,9.2118
2024-05-09T00:08:35.879Z,9.2006
2024-05-09T00:09:37.882Z,9.2118
2024-05-09T00:10:40.657Z,9.2275
2024-05-09T00:11:40.678Z,9.1980
2024-05-09T00:12:42.439Z,9.2178
2024-05-09T00:13:44.338Z,9.2031
2024-05-09T00:14:45.960Z,9.1896
2024-05-09T00:15:47.589Z,9.1680
2024-05-09T00:16:49.312Z,9.2306
2024-05-09T00:17:51.634Z,9.2730
2024-05-09T00:18:54.297Z,9.2738
2024-05-09T00:19:56.166Z,9.2667
2024-05-09T00:20:57.942Z,9.3087
2024-05-09T00:21:59.640Z,9.2990
2024-05-09T00:23:01.458Z,9.2616
2024-05-09T00:24:03.233Z,9.2754
2024-05-09T00:25:04.871Z,9.2737
2024-05-09T00:26:06.634Z,9.2522
2024-05-09T00:27:08.945Z,9.2134
2024-05-09T00:28:09.131Z,9.2046
2024-05-09T00:29:10.778Z,9.1892
2024-05-09T00:30:17.824Z,9.1692
2024-05-09T00:31:14.527Z,9.1413
2024-05-09T00:32:16.362Z,9.1688
2024-05-09T00:33:18.377Z,9.1143
2024-05-09T00:34:20.327Z,9.0779
2024-05-09T00:35:22.266Z,9.0608
2024-05-09T00:36:24.240Z,9.0920
2024-05-09T00:37:26.051Z,9.0925
2024-05-09T00:38:27.868Z,9.0507
2024-05-09T00:39:29.614Z,9.0163
2024-05-09T00:40:38.586Z,9.0042
2024-05-09T00:41:33.413Z,9.0062
2024-05-09T00:42:35.178Z,9.0181
2024-05-09T00:43:36.948Z,8.9978
2024-05-09T00:44:38.662Z,9.0090
2024-05-09T00:45:40.423Z,9.0249
2024-05-09T00:46:42.141Z,9.0698
2024-05-09T00:47:44.441Z,9.1083
2024-05-09T00:48:46.464Z,9.1707
2024-05-09T00:49:48.497Z,9.1958
2024-05-09T00:50:50.305Z,9.2023
2024-05-09T00:51:52.211Z,9.2316
2024-05-09T00:52:53.846Z,9.2583
2024-05-09T00:53:55.938Z,9.2760
2024-05-09T00:54:57.638Z,9.2761
2024-05-09T00:55:59.404Z,9.3066
2024-05-09T00:57:01.057Z,9.3399
2024-05-09T00:58:02.881Z,9.3749
2024-05-09T00:59:04.672Z,9.3675
2024-05-09T01:00:12.079Z,9.4179
2024-05-09T01:01:08.561Z,9.4706
2024-05-09T01:02:10.440Z,9.4604
2024-05-09T01:03:13.904Z,9.4683
2024-05-09T01:04:13.581Z,9.4864
2024-05-09T01:05:15.394Z,9.5265
2024-05-09T01:06:17.269Z,9.5146
2024-05-09T01:07:19.051Z,9.5161
2024-05-09T01:08:21.045Z,9.5273
2024-05-09T01:09:22.911Z,9.5396
2024-05-09T01:10:32.210Z,9.5651
2024-05-09T01:11:26.917Z,9.5955
2024-05-09T01:12:28.846Z,9.6156
2024-05-09T01:13:30.538Z,9.6266
2024-05-09T01:14:32.444Z,9.6420
2024-05-09T01:15:34.215Z,9.6618
2024-05-09T01:16:36.162Z,9.6461
2024-05-09T01:17:38.082Z,9.6491
2024-05-09T01:18:40.032Z,9.6463
2024-05-09T01:19:41.941Z,9.6743
2024-05-09T01:20:45.313Z,9.6726
2024-05-09T01:21:44.676Z,9.6574
2024-05-09T01:22:46.423Z,9.6644
2024-05-09T01:23:48.115Z,9.6551
2024-05-09T01:24:49.977Z,9.6403
2024-05-09T01:25:51.679Z,9.6724
2024-05-09T01:26:53.472Z,9.7119
2024-05-09T01:27:55.223Z,9.7118
2024-05-09T01:28:56.972Z,9.7206
2024-05-09T01:29:58.748Z,9.7235
2024-05-09T01:31:00.464Z,9.7269
2024-05-09T01:32:02.320Z,9.7301
2024-05-09T01:33:04.957Z,9.7220
2024-05-09T01:34:04.937Z,9.7149
2024-05-09T01:35:06.653Z,9.7138
2024-05-09T01:36:08.594Z,9.7175
2024-05-09T01:37:10.363Z,9.7201
2024-05-09T01:38:12.312Z,9.7385
2024-05-09T01:39:14.209Z,9.7337
2024-05-09T01:40:21.961Z,9.7400
2024-05-09T01:41:18.078Z,9.7510
2024-05-09T01:42:19.782Z,9.7544
2024-05-09T01:43:21.590Z,9.7663
2024-05-09T01:44:23.412Z,9.7738
2024-05-09T01:45:25.116Z,9.7860
2024-05-09T01:46:26.846Z,9.7949
2024-05-09T01:47:28.632Z,9.8000
2024-05-09T01:48:30.463Z,9.8039
2024-05-09T01:49:32.277Z,9.8068
2024-05-09T01:50:39.108Z,9.8246
2024-05-09T01:51:36.288Z,9.8086
2024-05-09T01:52:38.030Z,9.8202
2024-05-09T01:53:39.856Z,9.8513
2024-05-09T01:54:41.617Z,9.8626
2024-05-09T01:55:43.591Z,9.8607
2024-05-09T01:56:45.406Z,9.8706
2024-05-09T01:57:47.157Z,9.8636
2024-05-09T01:58:48.926Z,9.8700
2024-05-09T01:59:50.692Z,9.8637
2024-05-09T02:00:52.616Z,9.8605
2024-05-09T02:01:57.004Z,9.8578
2024-05-09T02:02:56.921Z,9.8508
2024-05-09T02:03:59.065Z,9.8589
2024-05-09T02:05:01.239Z,9.8765
2024-05-09T02:06:03.162Z,9.8787
2024-05-09T02:07:04.930Z,9.8850
2024-05-09T02:08:06.717Z,9.8878
2024-05-09T02:09:08.370Z,9.8853
2024-05-09T02:10:16.533Z,9.8842
2024-05-09T02:11:12.442Z,9.9009
2024-05-09T02:12:14.608Z,9.9021
2024-05-09T02:13:16.729Z,9.9179
2024-05-09T02:14:18.552Z,9.8944
2024-05-09T02:15:20.287Z,9.8923
2024-05-09T02:16:22.044Z,9.8944
2024-05-09T02:17:23.908Z,9.9006
2024-05-09T02:18:25.807Z,9.9011
2024-05-09T02:19:27.710Z,9.9151
2024-05-09T02:20:34.185Z,9.9177
2024-05-09T02:21:31.831Z,9.9044
2024-05-09T02:22:33.569Z,9.9219
2024-05-09T02:23:35.353Z,9.9159
2024-05-09T02:24:37.137Z,9.9273
2024-05-09T02:25:38.891Z,9.9438
2024-05-09T02:26:40.752Z,9.9402
2024-05-09T02:27:42.458Z,9.9389
2024-05-09T02:28:44.161Z,9.9318
2024-05-09T02:29:45.825Z,9.9079
2024-05-09T02:30:47.560Z,9.9199
2024-05-09T02:31:49.542Z,9.9249
2024-05-09T02:32:51.450Z,9.9281
2024-05-09T02:33:53.438Z,9.9179
2024-05-09T02:34:55.393Z,9.9043
2024-05-09T02:35:57.083Z,9.8935
2024-05-09T02:36:58.910Z,9.9067
2024-05-09T02:38:00.953Z,9.9040
2024-05-09T02:39:02.740Z,9.9050
2024-05-09T02:40:05.648Z,9.9012
2024-05-09T02:41:04.770Z,9.8938
2024-05-09T02:42:06.455Z,9.8955
2024-05-09T02:43:09.314Z,9.8847
2024-05-09T02:44:09.750Z,9.8835
2024-05-09T02:45:11.698Z,9.8830
2024-05-09T02:46:13.411Z,9.8932
2024-05-09T02:47:15.248Z,9.8880
2024-05-09T02:48:17.056Z,9.8762
2024-05-09T02:49:19.112Z,9.8726
2024-05-09T02:50:29.712Z,9.8674
2024-05-09T02:51:23.179Z,9.8555
2024-05-09T02:52:24.921Z,9.8445
2024-05-09T02:53:26.819Z,9.8470
2024-05-09T02:54:28.538Z,9.8420
2024-05-09T02:55:30.254Z,9.8312
2024-05-09T02:56:32.005Z,9.8324
2024-05-09T02:57:33.781Z,9.8067
2024-05-09T02:58:35.485Z,9.8123
2024-05-09T02:59:37.326Z,9.8189
2024-05-09T03:00:41.505Z,9.8013
2024-05-09T03:01:39.332Z,9.7970
2024-05-09T03:02:41.117Z,9.8030
2024-05-09T03:03:43.109Z,9.8033
2024-05-09T03:04:45.175Z,9.7922
2024-05-09T03:05:47.147Z,9.7874
2024-05-09T03:06:48.949Z,9.8058
2024-05-09T03:07:50.746Z,9.7960
2024-05-09T03:08:52.511Z,9.8001
2024-05-09T03:09:54.220Z,9.7847
2024-05-09T03:10:56.139Z,9.7985
2024-05-09T03:11:57.951Z,9.7786
2024-05-09T03:12:59.815Z,9.7811
2024-05-09T03:14:01.574Z,9.7967
2024-05-09T03:15:03.324Z,9.7936
2024-05-09T03:16:05.126Z,9.8000
2024-05-09T03:17:07.018Z,9.7942
2024-05-09T03:18:08.885Z,9.8038
2024-05-09T03:19:11.018Z,9.7886
2024-05-09T03:20:20.483Z,9.7976
2024-05-09T03:21:14.974Z,9.8036
2024-05-09T03:22:16.612Z,9.8090
2024-05-09T03:23:18.428Z,9.8021
2024-05-09T03:24:20.137Z,9.8050
2024-05-09T03:25:21.872Z,9.8282
2024-05-09T03:26:23.804Z,9.8216
2024-05-09T03:27:25.580Z,9.8177
2024-05-09T03:28:27.248Z,9.7924
2024-05-09T03:29:29.009Z,9.7927
2024-05-09T03:30:39.419Z,9.8044
2024-05-09T03:31:32.855Z,9.7971
2024-05-09T03:32:34.688Z,9.7845
2024-05-09T03:33:36.860Z,9.7842
2024-05-09T03:34:39.023Z,9.7717
2024-05-09T03:35:40.936Z,9.7831
2024-05-09T03:36:42.727Z,9.7854
2024-05-09T03:37:44.465Z,9.7894
2024-05-09T03:38:46.260Z,9.7954
2024-05-09T03:39:47.927Z,9.7905
2024-05-09T03:40:50.371Z,9.7744
2024-05-09T03:41:50.051Z,9.7718
2024-05-09T03:42:51.818Z,9.7757
2024-05-09T03:43:53.589Z,9.7682
2024-05-09T03:44:55.309Z,9.7674
2024-05-09T03:45:57.044Z,9.7898
2024-05-09T03:46:58.972Z,9.8052
2024-05-09T03:48:00.816Z,9.7970
2024-05-09T03:49:02.787Z,9.7886
2024-05-09T03:50:05.608Z,9.7999
2024-05-09T03:51:05.037Z,9.7859
2024-05-09T03:52:06.782Z,9.8022
2024-05-09T03:53:08.582Z,9.7931
2024-05-09T03:54:10.223Z,9.7910
2024-05-09T03:55:12.042Z,9.7893
2024-05-09T03:56:13.777Z,9.7792
2024-05-09T03:57:15.549Z,9.7862
2024-05-09T03:58:17.261Z,9.7867
2024-05-09T03:59:19.060Z,9.7779
2024-05-09T04:00:30.463Z,9.7842
2024-05-09T04:01:22.876Z,9.7757
2024-05-09T04:02:24.641Z,9.7731
2024-05-09T04:03:26.878Z,9.7749
2024-05-09T04:04:28.902Z,9.7811
2024-05-09T04:05:30.918Z,9.7666
2024-05-09T04:06:32.973Z,9.7745
2024-05-09T04:07:34.698Z,9.7786
2024-05-09T04:08:36.605Z,9.7860
2024-05-09T04:09:38.544Z,9.8007
2024-05-09T04:10:40.317Z,9.8158
2024-05-09T04:11:42.140Z,9.8198
2024-05-09T04:12:43.855Z,9.8279
2024-05-09T04:13:45.636Z,9.8473
2024-05-09T04:14:47.429Z,9.8793
2024-05-09T04:15:49.171Z,9.8950
2024-05-09T04:16:50.935Z,9.9152
2024-05-09T04:17:52.877Z,9.9237
2024-05-09T04:18:54.834Z,9.9216
2024-05-09T04:19:56.574Z,9.9237
2024-05-09T04:20:58.328Z,9.9224
2024-05-09T04:22:00.052Z,9.9006
2024-05-09T04:23:01.811Z,9.9073
2024-05-09T04:24:03.597Z,9.9118
2024-05-09T04:25:05.290Z,9.9105
2024-05-09T04:26:07.068Z,9.9106
2024-05-09T04:27:08.760Z,9.9162
2024-05-09T04:28:10.485Z,9.9409
2024-05-09T04:29:12.443Z,9.9514
2024-05-09T04:30:21.702Z,9.9522
2024-05-09T04:31:16.289Z,9.9566
2024-05-09T04:32:18.037Z,9.9499
2024-05-09T04:33:20.345Z,9.9552
2024-05-09T04:34:22.671Z,9.9630
2024-05-09T04:35:24.767Z,9.9656
2024-05-09T04:36:26.594Z,9.9750
2024-05-09T04:37:28.308Z,9.9578
2024-05-09T04:38:30.028Z,9.9675
2024-05-09T04:39:31.855Z,9.9714
2024-05-09T04:40:36.199Z,9.9862
2024-05-09T04:41:36.356Z,9.9774
2024-05-09T04:42:38.126Z,9.9945
2024-05-09T04:43:39.810Z,9.9995
2024-05-09T04:44:41.657Z,9.9929
2024-05-09T04:45:43.364Z,9.9995
2024-05-09T04:46:45.177Z,10.0225
2024-05-09T04:47:47.067Z,10.0554
2024-05-09T04:48:49.101Z,10.0595
2024-05-09T04:49:51.035Z,10.0523
2024-05-09T04:50:52.840Z,10.0686
2024-05-09T04:51:54.603Z,10.0849
2024-05-09T04:52:56.387Z,10.0816
2024-05-09T04:53:58.106Z,10.0663
2024-05-09T04:54:59.899Z,10.0645
2024-05-09T04:56:01.672Z,10.0714
2024-05-09T04:57:03.406Z,10.0763
2024-05-09T04:58:05.082Z,10.1055
2024-05-09T04:59:06.972Z,10.1008
2024-05-09T05:00:14.611Z,10.0983
2024-05-09T05:01:10.849Z,10.1005
2024-05-09T05:02:12.821Z,10.1161
2024-05-09T05:03:16.029Z,10.1098
2024-05-09T05:04:15.855Z,10.1298
2024-05-09T05:05:17.902Z,10.1406
2024-05-09T05:06:19.824Z,10.1342
2024-05-09T05:07:21.574Z,10.1480
2024-05-09T05:08:23.417Z,10.1533
2024-05-09T05:09:25.128Z,10.1237
2024-05-09T05:10:33.592Z,10.1390
2024-05-09T05:11:29.145Z,10.1416
2024-05-09T05:12:31.163Z,10.1494
2024-05-09T05:13:33.143Z,10.1820
2024-05-09T05:14:34.954Z,10.1913
2024-05-09T05:15:36.771Z,10.1985
2024-05-09T05:16:38.514Z,10.2070
2024-05-09T05:17:40.555Z,10.1906
2024-05-09T05:18:42.475Z,10.2356
2024-05-09T05:19:44.543Z,10.2584
2024-05-09T05:20:46.531Z,10.2747
2024-05-09T05:21:48.395Z,10.2928
2024-05-09T05:22:50.246Z,10.3511
2024-05-09T05:23:52.049Z,10.3784
2024-05-09T05:24:53.841Z,10.3586
2024-05-09T05:25:55.991Z,10.3906
2024-05-09T05:26:57.937Z,10.3844
2024-05-09T05:27:59.688Z,10.4053
2024-05-09T05:29:01.528Z,10.3674
2024-05-09T05:30:03.576Z,10.3928
2024-05-09T05:31:04.764Z,10.3544
2024-05-09T05:32:06.652Z,10.3827
2024-05-09T05:33:08.585Z,10.4001
2024-05-09T05:34:10.485Z,10.3576
2024-05-09T05:35:12.340Z,10.3380
2024-05-09T05:36:14.099Z,10.3421
2024-05-09T05:37:15.912Z,10.3626
2024-05-09T05:38:17.968Z,10.3480
2024-05-09T05:39:19.894Z,10.3907
2024-05-09T05:40:28.354Z,10.3837
2024-05-09T05:41:23.850Z,10.3846
2024-05-09T05:42:25.603Z,10.4136
2024-05-09T05:43:27.468Z,10.4126
2024-05-09T05:44:29.299Z,10.4450
2024-05-09T05:45:31.118Z,10.4973
2024-05-09T05:46:32.879Z,10.5312
2024-05-09T05:47:34.971Z,10.5555
2024-05-09T05:48:37.145Z,10.5663
2024-05-09T05:49:39.096Z,10.5723
2024-05-09T05:50:41.072Z,10.5431
2024-05-09T05:51:42.840Z,10.5271
2024-05-09T05:52:44.645Z,10.5286
2024-05-09T05:53:46.575Z,10.4948
2024-05-09T05:54:48.363Z,10.5129
2024-05-09T05:55:50.206Z,10.4626
2024-05-09T05:56:52.056Z,10.4738
2024-05-09T05:57:53.853Z,10.4703
2024-05-09T05:58:55.660Z,10.5176
2024-05-09T05:59:57.429Z,10.5092
2024-05-09T06:00:59.230Z,10.5041
2024-05-09T06:02:01.193Z,10.4735
2024-05-09T06:03:03.143Z,10.4790
2024-05-09T06:04:05.076Z,10.4648
2024-05-09T06:05:06.872Z,10.4966
2024-05-09T06:06:08.631Z,10.5214
2024-05-09T06:07:10.417Z,10.5470
2024-05-09T06:08:12.392Z,10.6013
2024-05-09T06:09:14.326Z,10.6511
2024-05-09T06:10:21.466Z,10.6918
2024-05-09T06:11:18.321Z,10.7798
2024-05-09T06:12:20.165Z,10.7406
2024-05-09T06:13:21.995Z,10.7828
2024-05-09T06:14:23.852Z,10.8153
2024-05-09T06:15:25.861Z,10.8508
2024-05-09T06:16:27.614Z,10.8507
2024-05-09T06:17:29.493Z,10.8140
2024-05-09T06:18:31.502Z,10.8783
2024-05-09T06:19:33.702Z,11.0286
2024-05-09T06:20:37.903Z,11.0347
2024-05-09T06:21:37.823Z,11.0770
2024-05-09T06:22:39.603Z,11.1148
2024-05-09T06:23:41.363Z,11.1477
2024-05-09T06:24:43.178Z,11.1959
2024-05-09T06:25:45.099Z,11.3591
2024-05-09T06:26:46.868Z,11.4656
2024-05-09T06:27:48.669Z,11.4391
2024-05-09T06:28:50.523Z,11.6048
2024-05-09T06:29:52.286Z,11.7151
2024-05-09T06:30:54.058Z,11.6025
2024-05-09T06:31:59.523Z,11.5718
2024-05-09T06:32:56.367Z,11.7541
2024-05-09T06:33:58.382Z,12.0851
2024-05-09T06:35:00.296Z,12.1557
2024-05-09T06:36:02.050Z,11.9902
2024-05-09T06:37:03.816Z,12.1481
2024-05-09T06:38:05.696Z,12.2578
2024-05-09T06:39:07.517Z,12.2852
2024-05-09T06:40:10.081Z,12.2975
2024-05-09T06:41:09.317Z,12.4281
2024-05-09T06:42:11.077Z,12.1278
2024-05-09T06:43:12.970Z,12.1147
2024-05-09T06:44:14.793Z,12.1975
2024-05-09T06:45:16.587Z,12.3002
2024-05-09T06:46:18.386Z,12.2282
2024-05-09T06:47:20.358Z,12.2670
2024-05-09T06:48:22.944Z,12.1779
2024-05-09T06:49:22.475Z,12.4746
2024-05-09T06:50:28.146Z,12.7877
2024-05-09T06:51:26.480Z,12.8238
2024-05-09T06:52:28.307Z,12.8528
2024-05-09T06:53:30.105Z,12.7337
2024-05-09T06:54:31.890Z,12.6307
2024-05-09T06:55:33.742Z,12.4218
2024-05-09T06:56:35.575Z,12.2974
2024-05-09T06:57:39.179Z,12.2483
2024-05-09T06:58:37.698Z,12.1480
2024-05-09T06:59:39.484Z,12.1930
2024-05-09T07:00:42.216Z,12.0590
2024-05-09T07:01:41.524Z,12.0526
2024-05-09T07:02:43.365Z,12.1077
2024-05-09T07:03:45.238Z,12.0885
2024-05-09T07:04:47.199Z,11.9854
2024-05-09T07:05:49.865Z,12.0396
2024-05-09T07:06:49.127Z,11.9691
2024-05-09T07:07:50.935Z,11.9893
2024-05-09T07:08:52.863Z,11.8225
2024-05-09T07:09:54.666Z,11.8796
2024-05-09T07:10:56.506Z,11.8353
2024-05-09T07:11:58.370Z,11.7804
2024-05-09T07:13:00.180Z,11.7525
2024-05-09T07:14:02.001Z,11.7212
2024-05-09T07:15:03.814Z,11.6725
2024-05-09T07:16:05.591Z,11.6469
2024-05-09T07:17:07.521Z,11.6584
2024-05-09T07:18:09.524Z,11.6169
2024-05-09T07:19:11.612Z,11.6462
2024-05-09T07:20:23.027Z,11.6000
2024-05-09T07:21:15.776Z,11.6646
2024-05-09T07:22:17.653Z,11.6728
2024-05-09T07:23:19.655Z,11.8148
2024-05-09T07:24:21.725Z,11.8269
2024-05-09T07:25:23.521Z,11.8758
2024-05-09T07:26:25.385Z,12.0674
2024-05-09T07:27:27.207Z,12.1456
2024-05-09T07:28:28.968Z,12.2056
2024-05-09T07:29:30.847Z,12.2430
2024-05-09T07:30:34.399Z,12.3899
2024-05-09T07:31:34.233Z,12.5203
2024-05-09T07:32:36.141Z,12.6864
2024-05-09T07:33:37.957Z,12.6231
2024-05-09T07:34:39.841Z,12.4321
2024-05-09T07:35:41.669Z,12.3960
2024-05-09T07:36:43.393Z,12.3083
2024-05-09T07:37:45.218Z,12.3758
2024-05-09T07:38:46.997Z,12.2310
2024-05-09T07:39:48.795Z,12.1327
2024-05-09T07:40:50.637Z,12.0641
2024-05-09T07:41:52.522Z,12.1219
2024-05-09T07:42:54.290Z,12.1346
2024-05-09T07:43:56.089Z,12.0440
2024-05-09T07:45:14.551Z,12.1232
2024-05-09T07:46:28.567Z,12.2205
2024-05-09T07:53:29.268Z,12.2265
2024-05-09T07:53:37.744Z,12.3828
2024-05-09T07:54:17.031Z,12.3960
2024-05-09T07:55:19.220Z,12.4002
2024-05-09T07:56:22.831Z,12.4423
2024-05-09T07:57:23.109Z,12.4024
2024-05-09T07:58:24.898Z,12.6179
2024-05-09T07:59:26.656Z,12.6102
2024-05-09T08:00:31.516Z,12.6206
2024-05-09T08:01:28.882Z,12.7217
2024-05-09T08:02:30.841Z,12.8769
2024-05-09T08:03:32.976Z,12.9764
2024-05-09T08:04:35.015Z,12.8541
2024-05-09T08:05:37.095Z,12.8697
2024-05-09T08:06:39.097Z,12.9386
2024-05-09T08:07:40.952Z,13.1187
2024-05-09T08:08:42.799Z,13.3492
2024-05-09T08:09:44.665Z,13.2357
2024-05-09T08:10:46.602Z,13.0216
2024-05-09T08:11:48.490Z,13.0712
2024-05-09T08:12:50.487Z,13.0874
2024-05-09T08:13:52.246Z,13.3967
2024-05-09T08:14:54.086Z,13.1588
2024-05-09T08:15:55.945Z,12.9035
2024-05-09T08:16:57.763Z,12.8530
2024-05-09T08:17:59.783Z,12.9646
2024-05-09T08:19:01.731Z,13.0662
2024-05-09T08:20:05.432Z,13.1879
2024-05-09T08:21:04.678Z,13.1393
2024-05-09T08:22:06.794Z,13.0039
2024-05-09T08:23:08.754Z,13.2503
2024-05-09T08:24:10.723Z,13.2918
2024-05-09T08:25:14.161Z,13.1994
2024-05-09T08:26:13.586Z,12.9829
2024-05-09T08:27:15.411Z,12.9311
2024-05-09T08:28:17.388Z,12.9958
2024-05-09T08:29:19.264Z,12.8166
2024-05-09T08:30:25.482Z,12.6716
2024-05-09T08:31:23.554Z,12.6266
2024-05-09T08:32:25.402Z,12.5996
2024-05-09T08:33:27.396Z,12.5072
2024-05-09T08:34:29.480Z,12.5063
2024-05-09T08:35:31.484Z,12.5108
2024-05-09T08:36:33.554Z,12.5129
2024-05-09T08:37:38.783Z,12.4723
2024-05-09T08:38:37.443Z,12.5468
2024-05-09T08:39:39.267Z,12.6045
2024-05-09T08:40:41.259Z,12.7716
2024-05-09T08:41:43.181Z,12.8731
2024-05-09T08:42:45.040Z,13.1902
2024-05-09T08:43:46.910Z,13.2151
2024-05-09T08:44:48.829Z,12.9648
2024-05-09T08:45:50.737Z,13.1833
2024-05-09T08:46:52.533Z,13.3639
2024-05-09T08:47:54.438Z,13.5565
2024-05-09T08:48:56.351Z,13.7549
2024-05-09T08:49:58.280Z,13.5146
2024-05-09T08:51:00.161Z,13.6235
2024-05-09T08:52:02.059Z,13.6528
2024-05-09T08:53:03.888Z,13.9153
2024-05-09T08:54:05.696Z,13.6297
2024-05-09T08:55:07.617Z,13.3846
2024-05-09T08:56:09.440Z,13.2626
2024-05-09T08:57:11.229Z,13.2184
2024-05-09T08:58:13.094Z,13.2828
2024-05-09T08:59:15.114Z,13.3014
2024-05-09T09:00:25.603Z,13.3949
2024-05-09T09:01:19.327Z,13.5893
2024-05-09T09:02:21.492Z,13.6876
2024-05-09T09:03:23.528Z,13.8635
2024-05-09T09:04:25.557Z,13.8215
2024-05-09T09:05:27.792Z,13.8356
2024-05-09T09:06:29.682Z,13.9664
2024-05-09T09:07:31.635Z,13.6458
2024-05-09T09:08:33.548Z,13.2748
2024-05-09T09:09:35.360Z,13.1219
2024-05-09T09:10:37.251Z,12.9103
2024-05-09T09:11:38.998Z,12.9136
2024-05-09T09:12:40.788Z,12.8751
2024-05-09T09:13:42.635Z,12.9041
2024-05-09T09:14:44.476Z,12.9870
2024-05-09T09:15:46.387Z,13.0056
2024-05-09T09:16:48.165Z,13.0891
2024-05-09T09:17:50.067Z,13.2660
2024-05-09T09:18:52.477Z,13.2807
2024-05-09T09:19:54.822Z,13.3083
2024-05-09T09:20:56.802Z,13.3922
2024-05-09T09:21:58.558Z,13.1820
2024-05-09T09:23:00.613Z,13.1691
2024-05-09T09:24:02.456Z,13.2041
2024-05-09T09:25:04.394Z,13.1757
2024-05-09T09:26:06.288Z,13.3268
2024-05-09T09:27:08.051Z,13.3335
2024-05-09T09:28:10.129Z,13.4230
2024-05-09T09:29:12.004Z,13.5423
2024-05-09T09:30:27.680Z,13.8737
2024-05-09T09:31:16.122Z,14.0553
2024-05-09T09:32:18.110Z,13.9527
2024-05-09T09:33:19.994Z,14.4458
2024-05-09T09:34:22.040Z,14.4217
2024-05-09T09:35:23.852Z,14.4804
2024-05-09T09:36:25.809Z,14.6729
2024-05-09T09:37:27.608Z,14.4433
2024-05-09T09:38:29.651Z,14.5417
2024-05-09T09:39:31.520Z,14.5220
2024-05-09T09:40:35.902Z,14.3522
2024-05-09T09:41:35.590Z,14.3609
2024-05-09T09:42:37.439Z,14.4926
2024-05-09T09:43:39.404Z,14.5184
2024-05-09T09:44:42.373Z,14.7678
2024-05-09T09:45:41.326Z,14.5449
2024-05-09T09:46:43.147Z,14.4608
2024-05-09T09:47:45.211Z,14.4001
2024-05-09T09:48:47.332Z,14.3807
2024-05-09T09:49:49.235Z,14.3958
2024-05-09T09:50:51.190Z,14.6158
2024-05-09T09:51:53.137Z,14.7055
2024-05-09T09:52:54.972Z,14.7287
2024-05-09T09:53:56.766Z,14.4987
2024-05-09T09:54:56.918Z,14.6567
2024-05-09T09:55:58.652Z,15.1609
2024-05-09T09:57:00.452Z,15.3056
2024-05-09T09:58:02.461Z,15.5580
2024-05-09T09:59:04.281Z,15.4925
2024-05-09T10:00:09.571Z,15.3328
2024-05-09T10:01:08.829Z,15.5418
2024-05-09T10:02:10.994Z,15.2758
2024-05-09T10:03:13.314Z,15.4996
2024-05-09T10:04:15.309Z,15.7009
2024-05-09T10:05:17.222Z,15.7486
2024-05-09T10:06:19.118Z,15.2857
2024-05-09T10:07:21.187Z,15.4993
2024-05-09T10:08:23.119Z,15.9933
2024-05-09T10:09:25.036Z,16.4221
2024-05-09T10:10:31.728Z,15.6604
2024-05-09T10:11:29.534Z,15.4667
2024-05-09T10:12:31.554Z,15.4096
2024-05-09T10:13:33.450Z,15.3417
2024-05-09T10:14:35.396Z,15.6776
2024-05-09T10:15:37.429Z,15.6068
2024-05-09T10:16:39.234Z,15.5635
2024-05-09T10:17:41.296Z,15.7242
2024-05-09T10:18:43.570Z,15.1553
2024-05-09T10:19:45.798Z,15.3002
2024-05-09T10:20:47.675Z,15.3561
2024-05-09T10:21:49.737Z,15.4462
2024-05-09T10:22:51.740Z,15.4321
2024-05-09T10:23:53.806Z,15.5552
2024-05-09T10:24:55.740Z,15.7372
2024-05-09T10:25:57.584Z,16.0141
2024-05-09T10:26:59.438Z,15.9801
2024-05-09T10:28:01.480Z,16.3536
2024-05-09T10:29:03.584Z,16.6936
2024-05-09T10:30:11.504Z,16.6651
2024-05-09T10:31:07.964Z,16.8535
2024-05-09T10:32:09.958Z,16.4480
2024-05-09T10:33:12.180Z,16.3139
2024-05-09T10:34:14.289Z,16.0277
2024-05-09T10:35:16.284Z,16.2213
2024-05-09T10:36:18.173Z,15.8229
2024-05-09T10:37:20.280Z,15.4883
2024-05-09T10:38:22.124Z,15.5235
2024-05-09T10:39:24.053Z,15.3723
2024-05-09T10:40:31.096Z,15.0074
2024-05-09T10:41:28.396Z,15.5484
2024-05-09T10:42:30.308Z,15.5178
2024-05-09T10:43:32.420Z,15.4321
2024-05-09T10:44:34.424Z,15.1623
2024-05-09T10:45:36.467Z,14.9047
2024-05-09T10:46:38.298Z,14.8699
2024-05-09T10:47:40.324Z,14.8805
2024-05-09T10:48:42.562Z,14.8691
2024-05-09T10:49:44.564Z,15.0488
2024-05-09T10:50:46.399Z,15.3153
2024-05-09T10:51:48.380Z,15.3026
2024-05-09T10:52:50.463Z,15.2098
2024-05-09T10:53:52.298Z,15.2063
2024-05-09T10:54:54.482Z,15.2578
2024-05-09T10:55:56.402Z,15.6355
2024-05-09T10:56:58.199Z,16.0148
2024-05-09T10:58:00.333Z,15.9908
2024-05-09T10:59:02.296Z,16.7649
2024-05-09T11:00:06.307Z,16.9788
2024-05-09T11:01:06.662Z,16.7387
2024-05-09T11:02:06.752Z,16.4911
2024-05-09T11:03:08.797Z,16.6936
2024-05-09T11:04:10.775Z,16.8203
2024-05-09T11:05:12.941Z,16.4218
2024-05-09T11:06:14.905Z,16.9542
2024-05-09T11:07:17.076Z,17.1605
2024-05-09T11:08:18.923Z,17.5396
2024-05-09T11:09:20.867Z,17.3222
2024-05-09T11:10:55.334Z,16.7364
2024-05-09T11:11:57.365Z,17.0212
2024-05-09T11:12:59.445Z,16.6785
2024-05-09T11:14:01.295Z,17.1100
2024-05-09T11:15:03.240Z,16.8114
2024-05-09T11:16:05.361Z,16.1976
2024-05-09T11:17:07.430Z,15.9804
2024-05-09T11:18:09.319Z,16.0273
2024-05-09T11:19:11.276Z,16.5825
2024-05-09T11:20:19.660Z,16.7483
2024-05-09T11:21:15.712Z,16.9392
2024-05-09T11:22:17.769Z,16.7857
2024-05-09T11:23:19.717Z,16.6285
2024-05-09T11:24:21.525Z,16.6576
2024-05-09T11:25:23.489Z,16.5171
2024-05-09T11:26:25.605Z,17.0018
2024-05-09T11:27:27.465Z,16.9726
2024-05-09T11:28:29.273Z,16.8591
2024-05-09T11:29:31.103Z,16.7064
2024-05-09T11:30:32.917Z,16.5609
2024-05-09T11:31:35.019Z,16.3071
2024-05-09T11:32:37.066Z,16.4547
2024-05-09T11:33:39.403Z,16.2452
2024-05-09T11:34:41.547Z,16.5567
2024-05-09T11:35:43.543Z,16.7057
2024-05-09T11:36:45.589Z,16.8134
2024-05-09T11:37:47.414Z,16.9133
2024-05-09T11:38:49.519Z,16.6292
2024-05-09T11:39:51.553Z,16.2417
2024-05-09T11:40:53.428Z,16.0579
2024-05-09T11:41:55.409Z,16.4325
2024-05-09T11:42:57.347Z,16.9616
2024-05-09T11:43:59.197Z,17.2525
2024-05-09T11:45:01.313Z,17.3737
2024-05-09T11:46:03.783Z,17.2108
2024-05-09T11:47:03.573Z,16.7042
2024-05-09T11:48:05.707Z,16.8596
2024-05-09T11:49:07.885Z,17.0185
2024-05-09T11:50:15.999Z,16.7064
2024-05-09T11:51:11.904Z,16.5325
2024-05-09T11:52:13.991Z,16.3495
2024-05-09T11:53:16.054Z,16.0142
2024-05-09T11:54:17.860Z,16.1355
2024-05-09T11:55:19.903Z,16.0709
2024-05-09T11:56:22.010Z,15.6097
2024-05-09T11:57:23.957Z,15.6856
2024-05-09T11:58:25.796Z,15.5215
2024-05-09T11:59:27.618Z,15.9101
2024-05-09T12:00:36.513Z,15.9739
2024-05-09T12:01:32.385Z,16.1573
2024-05-09T12:02:34.414Z,16.5020
2024-05-09T12:03:36.628Z,16.5335
2024-05-09T12:04:38.785Z,16.5280
2024-05-09T12:05:41.065Z,16.2501
2024-05-09T12:06:43.222Z,16.1604
2024-05-09T12:07:45.160Z,16.0404
2024-05-09T12:08:46.956Z,16.2501
2024-05-09T12:09:48.929Z,16.7276
2024-05-09T12:10:50.885Z,17.1092
2024-05-09T12:11:53.131Z,17.7145
2024-05-09T12:12:55.278Z,17.6356
2024-05-09T12:13:57.329Z,17.4598
2024-05-09T12:14:59.291Z,16.7187
2024-05-09T12:16:01.260Z,16.6377
2024-05-09T12:17:03.427Z,16.7010
2024-05-09T12:18:05.505Z,17.0465
2024-05-09T12:19:07.588Z,16.9492
2024-05-09T12:20:17.425Z,16.9561
2024-05-09T12:21:11.776Z,17.1512
2024-05-09T12:22:13.719Z,17.2058
2024-05-09T12:23:15.644Z,17.1835
2024-05-09T12:24:18.531Z,17.1670
2024-05-09T12:25:18.113Z,17.5522
2024-05-09T12:26:20.028Z,17.4251
2024-05-09T12:27:22.167Z,17.2625
2024-05-09T12:28:24.168Z,17.2723
2024-05-09T12:29:26.199Z,17.5574
2024-05-09T12:30:35.771Z,17.8985
2024-05-09T12:31:30.577Z,17.9311
2024-05-09T12:32:32.657Z,17.6747
2024-05-09T12:33:34.729Z,17.5679
2024-05-09T12:34:36.694Z,17.3880
2024-05-09T12:35:38.785Z,17.6783
2024-05-09T12:36:40.917Z,17.2892
2024-05-09T12:37:42.876Z,17.4260
2024-05-09T12:38:44.672Z,18.0340
2024-05-09T12:39:46.583Z,18.1737
2024-05-09T12:40:48.484Z,17.8235
2024-05-09T12:41:50.268Z,18.1410
2024-05-09T12:42:52.416Z,17.7900